Time;durP1;ratioP1;P1;durP2;ratioP2;P2;SDS_P1;SDS_P2;PMS_P1;PMS_P2;Temp;Humidity;BMP_temperature;BMP_pressure;BME280_temperature;BME280_humidity;BME280_pressure;Samples;Min_cycle;Max_cycle;Signal;HPM_P1;HPM_P2
2022/01/31 00:00:08;;;;;;;20.27;5.10;;;6.40;94.30;;;;;;5055731;28;20025;-75
2022/01/31 00:02:35;;;;;;;19.98;4.47;;;6.40;94.30;;;;;;5056471;28;20087;-74
2022/01/31 00:05:01;;;;;;;21.88;4.63;;;6.40;94.60;;;;;;5063423;28;20512;-75
2022/01/31 00:07:27;;;;;;;17.73;4.40;;;6.30;94.70;;;;;;5059697;28;20043;-74
2022/01/31 00:09:52;;;;;;;15.93;3.85;;;6.40;94.50;;;;;;5055573;28;20104;-74
2022/01/31 00:12:19;;;;;;;16.80;5.28;;;6.40;94.40;;;;;;5055595;28;20025;-74
2022/01/31 00:14:49;;;;;;;23.70;4.78;;;6.40;94.60;;;;;;5055452;28;20105;-75
2022/01/31 00:17:15;;;;;;;18.63;5.25;;;6.40;94.60;;;;;;5054772;28;20422;-75
2022/01/31 00:19:42;;;;;;;19.95;5.07;;;6.40;94.80;;;;;;5055291;28;20116;-75
2022/01/31 00:22:11;;;;;;;18.10;5.35;;;6.40;94.80;;;;;;5054947;28;20116;-75
2022/01/31 00:24:37;;;;;;;18.95;4.70;;;6.40;94.80;;;;;;5055095;28;20017;-75
2022/01/31 00:27:05;;;;;;;18.45;4.43;;;6.40;95.40;;;;;;5055216;28;20159;-75
2022/01/31 00:29:30;;;;;;;18.13;4.45;;;6.40;95.10;;;;;;5054975;28;20032;-76
2022/01/31 00:31:56;;;;;;;18.90;4.60;;;6.40;95.20;;;;;;5054920;28;20025;-75
2022/01/31 00:34:22;;;;;;;22.83;5.43;;;6.40;95.40;;;;;;5055052;28;20369;-76
2022/01/31 00:36:48;;;;;;;14.75;4.60;;;6.40;95.40;;;;;;5055058;28;20029;-76
2022/01/31 00:39:14;;;;;;;24.98;5.53;;;6.50;95.20;;;;;;5054578;28;20025;-76
2022/01/31 00:41:40;;;;;;;21.73;5.45;;;6.40;95.30;;;;;;5054684;28;20074;-76
2022/01/31 00:47:15;;;;;;;18.63;5.75;;;6.40;96.00;;;;;;5031507;28;20135;-76
2022/01/31 00:49:48;;;;;;;27.83;5.55;;;6.30;96.80;;;;;;5054792;28;20033;-75
2022/01/31 00:52:14;;;;;;;20.25;5.50;;;6.30;97.20;;;;;;5054275;28;20052;-76
2022/01/31 00:54:39;;;;;;;21.95;5.43;;;6.20;97.40;;;;;;5053749;28;20060;-76
2022/01/31 00:57:05;;;;;;;20.63;5.70;;;6.20;97.80;;;;;;5053983;28;20077;-76
2022/01/31 00:59:30;;;;;;;24.85;5.90;;;6.20;98.20;;;;;;5055162;28;20199;-75
2022/01/31 01:01:56;;;;;;;21.35;5.57;;;6.10;98.60;;;;;;5060022;28;20025;-75
2022/01/31 01:04:22;;;;;;;17.30;5.50;;;6.10;99.10;;;;;;5060891;28;20373;-75
2022/01/31 01:06:47;;;;;;;21.85;5.93;;;6.10;99.30;;;;;;5054510;28;20025;-76
2022/01/31 01:09:13;;;;;;;22.35;5.75;;;6.10;99.50;;;;;;5052603;28;20032;-75
2022/01/31 01:11:39;;;;;;;24.25;5.90;;;6.10;99.60;;;;;;5054335;28;20031;-75
2022/01/31 01:14:05;;;;;;;24.25;5.30;;;6.00;99.90;;;;;;5053926;28;20415;-75
2022/01/31 01:16:30;;;;;;;18.45;5.68;;;6.00;99.90;;;;;;5053720;28;20390;-75
2022/01/31 01:18:56;;;;;;;29.23;7.32;;;6.00;99.90;;;;;;5053966;28;20025;-75
2022/01/31 01:21:22;;;;;;;23.00;5.68;;;6.00;99.90;;;;;;5054144;28;20168;-75
2022/01/31 01:23:47;;;;;;;22.02;6.03;;;5.90;99.90;;;;;;5054071;28;20017;-75
2022/01/31 01:26:13;;;;;;;26.70;6.80;;;5.90;99.90;;;;;;5054153;28;20025;-75
2022/01/31 01:28:39;;;;;;;22.08;5.22;;;5.90;99.90;;;;;;5053877;28;20108;-75
2022/01/31 01:31:05;;;;;;;23.35;6.38;;;5.90;99.90;;;;;;5053690;28;20021;-75
2022/01/31 01:33:37;;;;;;;32.15;6.40;;;5.80;99.90;;;;;;5054000;28;20460;-74
2022/01/31 01:36:04;;;;;;;23.48;5.97;;;5.80;99.90;;;;;;5053566;28;20383;-74
2022/01/31 01:38:30;;;;;;;23.63;6.20;;;5.80;99.90;;;;;;5053857;28;20111;-74
2022/01/31 01:40:59;;;;;;;22.23;7.00;;;5.70;99.90;;;;;;5053647;28;20025;-74
2022/01/31 01:43:25;;;;;;;17.08;6.03;;;5.70;99.90;;;;;;5053651;28;20439;-74
2022/01/31 01:45:53;;;;;;;27.15;6.60;;;5.70;99.90;;;;;;5053397;28;20029;-76
2022/01/31 01:48:19;;;;;;;17.33;6.07;;;5.70;99.90;;;;;;5053812;28;20017;-75
2022/01/31 01:50:46;;;;;;;22.15;6.85;;;5.70;99.90;;;;;;5053723;28;20029;-76
2022/01/31 01:53:14;;;;;;;18.27;6.40;;;5.60;99.90;;;;;;5053352;28;20096;-75
2022/01/31 01:55:42;;;;;;;14.68;5.93;;;5.70;99.90;;;;;;5053355;28;20357;-75
2022/01/31 01:58:14;;;;;;;15.60;6.38;;;5.60;99.90;;;;;;5058971;28;20029;-74
2022/01/31 02:00:50;;;;;;;16.08;6.07;;;5.60;99.90;;;;;;5062190;28;20029;-76
2022/01/31 02:03:19;;;;;;;18.17;6.25;;;5.60;99.90;;;;;;5055834;28;20384;-76
2022/01/31 02:05:45;;;;;;;16.73;6.35;;;5.60;99.90;;;;;;5053556;28;20021;-76
2022/01/31 02:08:13;;;;;;;13.52;5.60;;;5.60;99.90;;;;;;5053284;28;20056;-76
2022/01/31 02:10:39;;;;;;;20.42;6.97;;;5.60;99.90;;;;;;5053244;28;20168;-76
2022/01/31 02:13:07;;;;;;;16.35;6.60;;;5.60;99.90;;;;;;5053295;28;20053;-75
2022/01/31 02:15:33;;;;;;;17.10;5.95;;;5.60;99.90;;;;;;5053469;28;20029;-76
2022/01/31 02:17:58;;;;;;;21.52;6.38;;;5.60;99.90;;;;;;5052907;28;20045;-75
2022/01/31 02:20:24;;;;;;;15.27;6.43;;;5.60;99.90;;;;;;5053062;28;20025;-76
2022/01/31 02:22:50;;;;;;;14.23;5.88;;;5.70;99.90;;;;;;5053125;28;20033;-76
2022/01/31 02:25:16;;;;;;;14.13;5.82;;;5.70;99.90;;;;;;5053242;28;20108;-76
2022/01/31 02:27:43;;;;;;;15.38;6.18;;;5.70;99.90;;;;;;5053115;28;20108;-76
2022/01/31 02:30:11;;;;;;;17.00;6.15;;;5.70;99.90;;;;;;5053481;28;20029;-76
2022/01/31 02:32:37;;;;;;;21.33;7.00;;;5.70;99.90;;;;;;5053117;28;20036;-76
2022/01/31 02:35:04;;;;;;;20.42;7.70;;;5.80;99.90;;;;;;5053368;28;20029;-76
2022/01/31 02:37:30;;;;;;;18.02;6.28;;;5.80;99.90;;;;;;5053036;28;20041;-76
2022/01/31 02:39:56;;;;;;;17.00;6.82;;;5.80;99.90;;;;;;5052860;28;20029;-76
2022/01/31 02:42:23;;;;;;;16.00;6.32;;;5.60;99.90;;;;;;5053231;28;20120;-76
2022/01/31 02:44:48;;;;;;;19.10;6.57;;;5.70;99.90;;;;;;5053403;28;20432;-76
2022/01/31 02:47:26;;;;;;;25.98;7.65;;;5.80;99.90;;;;;;5052907;28;20076;-76
2022/01/31 02:49:57;;;;;;;18.55;6.57;;;5.70;99.90;;;;;;5053048;28;20052;-76
2022/01/31 02:52:25;;;;;;;17.85;6.60;;;5.80;99.90;;;;;;5052830;28;20037;-75
2022/01/31 02:54:51;;;;;;;20.20;6.82;;;5.80;99.90;;;;;;5054175;28;20031;-74
2022/01/31 02:57:17;;;;;;;18.17;6.72;;;5.90;99.90;;;;;;5056680;28;20061;-75
2022/01/31 02:59:43;;;;;;;16.02;5.95;;;5.90;99.90;;;;;;5054901;28;20476;-75
2022/01/31 03:02:08;;;;;;;14.32;6.20;;;6.00;99.90;;;;;;5053247;28;20040;-75
2022/01/31 03:04:34;;;;;;;16.38;5.88;;;6.00;99.90;;;;;;5052862;28;20385;-75
2022/01/31 03:06:59;;;;;;;17.80;6.05;;;6.00;99.90;;;;;;5052769;28;20029;-76
2022/01/31 03:09:25;;;;;;;12.77;5.40;;;6.00;99.90;;;;;;5052874;28;20063;-76
2022/01/31 03:11:51;;;;;;;10.57;4.80;;;6.10;99.90;;;;;;5052927;28;20086;-76
2022/01/31 03:14:19;;;;;;;14.23;4.85;;;6.10;99.90;;;;;;5052600;28;20025;-76
2022/01/31 03:16:46;;;;;;;11.98;4.82;;;6.10;99.90;;;;;;5054193;28;20486;-76
2022/01/31 03:19:13;;;;;;;13.85;5.03;;;6.20;99.90;;;;;;5056556;28;20039;-76
2022/01/31 03:21:39;;;;;;;12.55;4.38;;;6.20;99.90;;;;;;5056437;28;20093;-76
2022/01/31 03:24:06;;;;;;;15.27;5.25;;;6.30;99.90;;;;;;5056420;28;20032;-75
2022/01/31 03:26:32;;;;;;;12.95;4.20;;;6.30;99.90;;;;;;5056287;28;20025;-76
2022/01/31 03:28:57;;;;;;;16.30;4.45;;;6.40;99.90;;;;;;5056452;28;20025;-76
2022/01/31 03:31:24;;;;;;;10.80;3.40;;;6.50;99.90;;;;;;5056486;28;20091;-76
2022/01/31 03:33:51;;;;;;;15.65;3.60;;;6.50;99.90;;;;;;5055965;28;20024;-76
2022/01/31 03:36:18;;;;;;;16.95;4.32;;;6.60;99.90;;;;;;5056197;28;20075;-76
2022/01/31 03:38:44;;;;;;;22.77;3.47;;;6.60;99.90;;;;;;5056302;28;20104;-77
2022/01/31 03:41:14;;;;;;;15.75;3.03;;;6.70;99.90;;;;;;5056073;28;20025;-76
2022/01/31 03:43:40;;;;;;;19.65;3.20;;;6.70;99.90;;;;;;5055813;28;20021;-75
2022/01/31 03:46:07;;;;;;;14.48;2.97;;;6.70;99.90;;;;;;5055907;28;20021;-75
2022/01/31 03:48:33;;;;;;;13.57;2.67;;;6.80;99.90;;;;;;5055707;28;20025;-75
2022/01/31 03:51:02;;;;;;;24.92;2.72;;;6.80;99.90;;;;;;5055962;28;20024;-75
2022/01/31 03:53:28;;;;;;;20.15;2.50;;;6.80;99.90;;;;;;5062922;28;20021;-75
2022/01/31 03:55:54;;;;;;;25.80;2.60;;;6.90;99.90;;;;;;5062190;28;20036;-75
2022/01/31 03:58:20;;;;;;;17.13;2.40;;;6.90;99.90;;;;;;5057080;28;20073;-75
2022/01/31 04:00:46;;;;;;;19.88;2.30;;;7.00;99.90;;;;;;5055764;28;20063;-75
2022/01/31 04:03:12;;;;;;;16.80;2.40;;;6.90;99.90;;;;;;5055463;28;20671;-75
2022/01/31 04:05:38;;;;;;;22.42;2.58;;;7.00;99.90;;;;;;5055389;28;20025;-75
2022/01/31 04:08:05;;;;;;;17.50;2.35;;;7.10;99.90;;;;;;5055358;28;20029;-75
2022/01/31 04:10:31;;;;;;;16.23;2.03;;;7.00;99.90;;;;;;5055366;28;20036;-75
2022/01/31 04:12:57;;;;;;;17.48;2.13;;;7.10;99.90;;;;;;5055275;28;20354;-75
2022/01/31 04:15:22;;;;;;;16.70;2.15;;;7.10;99.90;;;;;;5054978;28;20033;-75
2022/01/31 04:17:48;;;;;;;19.20;2.40;;;7.10;99.90;;;;;;5054960;28;20033;-74
2022/01/31 04:20:15;;;;;;;22.60;2.72;;;7.10;99.90;;;;;;5055359;28;20036;-75
2022/01/31 04:22:55;;;;;;;15.55;1.67;;;7.10;99.90;;;;;;5055383;28;20029;-75
2022/01/31 04:25:29;;;;;;;14.85;2.30;;;7.10;99.90;;;;;;5055081;28;20025;-75
2022/01/31 04:28:04;;;;;;;23.45;2.83;;;7.20;99.90;;;;;;5054963;28;20333;-75
2022/01/31 04:30:35;;;;;;;19.27;1.63;;;7.20;99.90;;;;;;5055250;28;20112;-75
2022/01/31 04:33:00;;;;;;;25.50;2.10;;;7.30;99.90;;;;;;5054910;28;20017;-75
2022/01/31 04:35:26;;;;;;;23.45;2.97;;;7.30;99.90;;;;;;5054778;28;20017;-75
2022/01/31 04:37:52;;;;;;;21.52;1.90;;;7.20;99.90;;;;;;5054650;28;20064;-75
2022/01/31 04:40:17;;;;;;;18.85;2.13;;;7.20;99.90;;;;;;5054937;28;20135;-75
2022/01/31 04:42:44;;;;;;;24.42;2.53;;;7.20;99.90;;;;;;5054838;28;20481;-75
2022/01/31 04:45:11;;;;;;;17.77;2.75;;;7.20;99.90;;;;;;5054831;28;20029;-75
2022/01/31 04:47:37;;;;;;;14.35;1.52;;;7.10;99.90;;;;;;5054501;28;20033;-75
2022/01/31 04:50:04;;;;;;;23.02;2.33;;;7.10;99.90;;;;;;5055668;28;20028;-75
2022/01/31 04:52:30;;;;;;;20.58;2.30;;;7.10;99.90;;;;;;5062113;28;20013;-75
2022/01/31 04:54:56;;;;;;;18.50;2.15;;;7.10;99.90;;;;;;5060618;28;20387;-75
2022/01/31 04:57:22;;;;;;;17.65;2.15;;;7.10;99.90;;;;;;5054136;28;20053;-76
2022/01/31 04:59:49;;;;;;;14.45;1.52;;;7.10;99.90;;;;;;5054376;28;20033;-75
2022/01/31 05:02:14;;;;;;;16.75;1.70;;;7.10;99.90;;;;;;5054523;28;20056;-75
2022/01/31 05:04:40;;;;;;;19.77;2.35;;;7.00;99.90;;;;;;5054264;28;20060;-75
2022/01/31 05:07:05;;;;;;;17.52;2.47;;;7.00;99.90;;;;;;5054246;28;20099;-76
2022/01/31 05:09:32;;;;;;;20.88;2.20;;;7.00;99.90;;;;;;5054297;28;20079;-76
2022/01/31 05:11:57;;;;;;;22.38;2.25;;;7.00;99.90;;;;;;5054034;28;20025;-75
2022/01/31 05:14:23;;;;;;;14.95;2.20;;;7.10;99.90;;;;;;5054322;28;20170;-75
2022/01/31 05:16:49;;;;;;;18.85;2.58;;;7.10;99.90;;;;;;5054130;28;20043;-75
2022/01/31 05:19:15;;;;;;;19.05;2.22;;;7.10;99.90;;;;;;5053871;28;20083;-75
2022/01/31 05:21:40;;;;;;;18.55;2.38;;;7.10;99.90;;;;;;5054247;28;20025;-75
2022/01/31 05:24:07;;;;;;;21.83;2.00;;;7.10;99.90;;;;;;5054178;28;20438;-75
2022/01/31 05:26:33;;;;;;;21.98;2.22;;;7.10;99.90;;;;;;5053811;28;20541;-75
2022/01/31 05:28:59;;;;;;;17.88;2.47;;;7.10;99.90;;;;;;5053560;28;20047;-75
2022/01/31 05:31:25;;;;;;;17.25;1.98;;;7.00;99.90;;;;;;5053908;28;20044;-75
2022/01/31 05:33:50;;;;;;;21.70;2.35;;;7.00;99.90;;;;;;5053716;28;20095;-75
2022/01/31 05:36:16;;;;;;;14.68;2.00;;;6.90;99.90;;;;;;5053697;28;20033;-75
2022/01/31 05:38:42;;;;;;;16.73;1.90;;;6.90;99.90;;;;;;5053306;28;20439;-76
2022/01/31 05:41:11;;;;;;;17.60;1.95;;;6.90;99.90;;;;;;5053475;28;20056;-76
2022/01/31 05:43:37;;;;;;;17.33;2.78;;;6.90;99.90;;;;;;5053740;28;20029;-76
2022/01/31 05:46:03;;;;;;;11.68;0.90;;;6.90;99.90;;;;;;5053879;28;20086;-76
2022/01/31 05:48:29;;;;;;;12.93;1.80;;;6.80;99.90;;;;;;5054469;28;20064;-76
2022/01/31 05:50:55;;;;;;;8.02;0.75;;;6.70;99.90;;;;;;5059381;28;20036;-76
2022/01/31 05:53:22;;;;;;;12.02;1.05;;;6.50;99.90;;;;;;5058690;28;20028;-76
2022/01/31 05:55:48;;;;;;;12.15;0.77;;;6.50;99.90;;;;;;5053386;28;20017;-75
2022/01/31 05:58:14;;;;;;;9.50;0.98;;;6.40;99.90;;;;;;5053183;28;20492;-75
2022/01/31 06:00:40;;;;;;;13.80;1.70;;;6.40;99.90;;;;;;5053186;28;20025;-75
2022/01/31 06:03:05;;;;;;;14.43;1.48;;;6.30;99.90;;;;;;5053449;28;20078;-74
2022/01/31 06:05:31;;;;;;;12.35;1.30;;;6.40;99.90;;;;;;5053120;28;20033;-74
2022/01/31 06:07:57;;;;;;;9.93;1.23;;;6.30;99.90;;;;;;5053211;28;20036;-74
2022/01/31 06:10:23;;;;;;;13.05;1.42;;;6.30;99.90;;;;;;5052929;28;20480;-74
2022/01/31 06:12:51;;;;;;;10.57;0.82;;;6.30;99.90;;;;;;5053377;28;20032;-74
2022/01/31 06:15:17;;;;;;;16.60;1.48;;;6.30;99.90;;;;;;5052771;28;20556;-75
2022/01/31 06:17:43;;;;;;;11.60;2.13;;;6.30;99.90;;;;;;5053012;28;20162;-75
2022/01/31 06:20:09;;;;;;;12.38;1.40;;;6.20;99.90;;;;;;5053199;28;20029;-75
2022/01/31 06:22:34;;;;;;;19.27;2.55;;;6.20;99.90;;;;;;5053258;28;20047;-75
2022/01/31 06:25:00;;;;;;;12.70;1.45;;;6.20;99.90;;;;;;5053307;28;20436;-75
2022/01/31 06:27:25;;;;;;;12.90;1.52;;;6.10;99.90;;;;;;5053419;28;20025;-75
2022/01/31 06:29:51;;;;;;;14.60;1.85;;;6.10;99.90;;;;;;5053253;28;20021;-75
2022/01/31 06:32:18;;;;;;;14.15;1.30;;;6.10;99.90;;;;;;5053451;28;20028;-77
2022/01/31 06:34:44;;;;;;;15.80;1.67;;;6.10;99.90;;;;;;5053246;28;20059;-78
2022/01/31 06:37:09;;;;;;;18.58;2.42;;;6.10;99.90;;;;;;5052863;28;20037;-78
2022/01/31 06:39:35;;;;;;;17.13;2.17;;;6.10;99.90;;;;;;5052937;28;20025;-75
2022/01/31 06:42:01;;;;;;;16.73;2.15;;;6.10;99.90;;;;;;5053411;28;20473;-75
2022/01/31 06:44:26;;;;;;;22.73;3.65;;;6.10;99.90;;;;;;5053070;28;20021;-76
2022/01/31 06:46:52;;;;;;;15.70;2.15;;;6.10;99.90;;;;;;5059189;28;20025;-75
2022/01/31 06:49:17;;;;;;;15.50;2.45;;;6.10;99.90;;;;;;5060179;28;20021;-74
2022/01/31 06:51:43;;;;;;;20.98;2.47;;;6.10;99.90;;;;;;5055243;28;20033;-74
2022/01/31 06:54:09;;;;;;;21.08;2.20;;;6.10;99.90;;;;;;5057727;28;20035;-75
2022/01/31 06:56:38;;;;;;;25.50;4.13;;;6.20;99.90;;;;;;5056016;28;20057;-74
2022/01/31 06:59:04;;;;;;;20.30;2.35;;;6.20;99.90;;;;;;5056733;28;20053;-75
2022/01/31 07:01:30;;;;;;;22.50;2.75;;;6.20;99.90;;;;;;5056563;28;20063;-75
2022/01/31 07:03:57;;;;;;;18.67;2.42;;;6.30;99.90;;;;;;5056533;28;20116;-81
2022/01/31 07:06:24;;;;;;;12.68;1.90;;;6.20;99.90;;;;;;5056915;28;20108;-75
2022/01/31 07:08:51;;;;;;;19.17;1.83;;;6.20;99.90;;;;;;5056612;28;20033;-78
2022/01/31 07:11:21;;;;;;;15.40;1.92;;;6.20;99.90;;;;;;5056677;28;20025;-78
2022/01/31 07:13:50;;;;;;;22.27;1.88;;;6.20;99.90;;;;;;5070598;28;20056;-77
2022/01/31 07:16:16;;;;;;;18.40;2.10;;;6.30;99.90;;;;;;5080324;28;20077;-77
2022/01/31 07:18:43;;;;;;;24.45;2.38;;;6.30;99.90;;;;;;5088276;28;20160;-76
2022/01/31 07:21:13;;;;;;;18.35;1.80;;;6.30;99.90;;;;;;5064907;28;20028;-76
2022/01/31 07:26:27;;;;;;;15.20;2.10;;;6.30;99.90;;;;;;5047496;28;20119;-79
2022/01/31 07:28:53;;;;;;;18.75;1.58;;;6.30;99.90;;;;;;5066527;28;20036;-79
2022/01/31 07:31:19;;;;;;;17.20;2.15;;;6.30;99.90;;;;;;5064766;28;20036;-78
2022/01/31 07:33:44;;;;;;;17.95;1.52;;;6.30;99.90;;;;;;5071368;28;20463;-75
2022/01/31 07:36:10;;;;;;;12.85;1.60;;;6.30;99.90;;;;;;5066477;28;20033;-78
2022/01/31 07:38:36;;;;;;;11.95;1.77;;;6.30;99.90;;;;;;5060651;28;20037;-78
2022/01/31 07:41:02;;;;;;;14.55;1.10;;;6.20;99.90;;;;;;5061909;28;20465;-77
2022/01/31 07:43:30;;;;;;;10.90;1.45;;;6.30;99.90;;;;;;5058297;28;20052;-80
2022/01/31 07:45:56;;;;;;;16.45;1.63;;;6.30;99.90;;;;;;5072592;28;20025;-79
2022/01/31 07:48:25;;;;;;;16.05;1.52;;;6.30;99.90;;;;;;5074480;28;20021;-79
2022/01/31 07:50:51;;;;;;;14.80;1.48;;;6.30;99.90;;;;;;5060061;28;20430;-81
2022/01/31 07:53:17;;;;;;;19.10;1.80;;;6.40;99.90;;;;;;5069605;28;20060;-85
2022/01/31 07:55:43;;;;;;;24.02;2.05;;;6.40;99.90;;;;;;5061419;28;20479;-81
2022/01/31 07:58:08;;;;;;;20.92;2.33;;;6.40;99.90;;;;;;5067419;28;20594;-81
2022/01/31 08:00:34;;;;;;;16.48;1.77;;;6.40;99.90;;;;;;5062506;28;20025;-83
2022/01/31 08:02:59;;;;;;;15.18;1.67;;;6.40;99.90;;;;;;5058326;28;20040;-82
2022/01/31 08:05:25;;;;;;;17.70;2.30;;;6.50;99.90;;;;;;5061063;28;20433;-83
2022/01/31 08:07:51;;;;;;;20.58;2.20;;;6.50;99.90;;;;;;5059065;28;20062;-80
2022/01/31 08:10:16;;;;;;;22.38;2.50;;;6.50;99.90;;;;;;5063393;28;20104;-80
2022/01/31 08:12:43;;;;;;;19.85;1.83;;;6.50;99.90;;;;;;5071762;28;20545;-82
2022/01/31 08:15:14;;;;;;;23.13;2.20;;;6.50;99.90;;;;;;5069810;28;20098;-77
2022/01/31 08:17:40;;;;;;;18.58;2.90;;;6.60;99.90;;;;;;5069976;28;20048;-79
2022/01/31 08:20:07;;;;;;;21.92;3.25;;;6.60;99.90;;;;;;5059470;28;20349;-78
2022/01/31 08:22:33;;;;;;;21.13;3.13;;;6.60;99.90;;;;;;5058230;28;20043;-76
2022/01/31 08:24:59;;;;;;;25.60;3.38;;;6.60;99.90;;;;;;5060564;28;20025;-76
2022/01/31 08:27:24;;;;;;;24.83;2.80;;;6.60;99.90;;;;;;5067177;28;20089;-76
2022/01/31 08:29:55;;;;;;;20.35;2.55;;;6.60;99.90;;;;;;5061161;28;20033;-75
2022/01/31 08:32:33;;;;;;;24.17;3.20;;;6.60;99.90;;;;;;5053948;28;20029;-77
2022/01/31 08:37:43;;;;;;;26.55;3.67;;;6.60;99.90;;;;;;5075021;28;20047;-76
2022/01/31 08:40:09;;;;;;;22.48;2.40;;;6.60;99.90;;;;;;5067436;28;20398;-74
2022/01/31 08:42:35;;;;;;;24.77;2.60;;;6.60;99.90;;;;;;5089462;28;20070;-78
2022/01/31 08:45:00;;;;;;;21.52;2.45;;;6.60;99.90;;;;;;5084698;28;20476;-80
2022/01/31 08:47:26;;;;;;;21.42;2.50;;;6.60;99.90;;;;;;5078944;28;20037;-78
2022/01/31 08:49:52;;;;;;;26.30;3.08;;;6.60;99.90;;;;;;5063978;28;20056;-79
2022/01/31 08:52:17;;;;;;;18.73;2.92;;;6.60;99.90;;;;;;5072510;28;20033;-77
2022/01/31 08:54:43;;;;;;;27.52;4.03;;;6.60;99.90;;;;;;5064222;28;20479;-77
2022/01/31 08:57:09;;;;;;;30.45;3.85;;;6.50;99.90;;;;;;5063735;28;20052;-80
2022/01/31 08:59:43;;;;;;;25.38;3.50;;;6.50;99.90;;;;;;5070418;28;20052;-81
2022/01/31 09:02:13;;;;;;;27.67;3.03;;;6.50;99.90;;;;;;5071023;28;20483;-80
2022/01/31 09:04:48;;;;;;;24.35;3.80;;;6.50;99.90;;;;;;5065801;28;20059;-80
2022/01/31 09:07:19;;;;;;;24.10;3.40;;;6.60;99.90;;;;;;5056478;28;20082;-78
2022/01/31 09:09:49;;;;;;;21.65;2.58;;;6.50;99.90;;;;;;5060039;28;20596;-82
2022/01/31 09:12:23;;;;;;;20.95;2.95;;;6.50;99.90;;;;;;5059302;28;20033;-81
2022/01/31 09:14:49;;;;;;;24.85;2.70;;;6.50;99.90;;;;;;5076251;28;20048;-79
2022/01/31 09:17:15;;;;;;;27.65;3.65;;;6.60;99.90;;;;;;5073525;28;20410;-83
2022/01/31 09:19:40;;;;;;;29.38;3.75;;;6.60;99.90;;;;;;5074173;28;20029;-81
2022/01/31 09:22:07;;;;;;;23.52;2.88;;;6.50;99.90;;;;;;5072716;28;20534;-82
2022/01/31 09:24:37;;;;;;;26.25;3.20;;;6.50;99.90;;;;;;5073975;28;20040;-79
2022/01/31 09:27:05;;;;;;;25.25;3.15;;;6.50;99.90;;;;;;5074160;28;20032;-78
2022/01/31 09:29:31;;;;;;;20.48;3.30;;;6.60;99.90;;;;;;5068303;28;20403;-78
2022/01/31 09:31:58;;;;;;;30.40;4.20;;;6.50;99.90;;;;;;5063946;28;20021;-76
2022/01/31 09:34:24;;;;;;;28.45;3.78;;;6.50;99.90;;;;;;5054191;28;20029;-77
2022/01/31 09:36:50;;;;;;;28.23;3.70;;;6.50;99.90;;;;;;5054362;28;20131;-77
2022/01/31 09:39:15;;;;;;;32.42;4.90;;;6.50;99.90;;;;;;5056372;28;20030;-77
2022/01/31 09:41:45;;;;;;;28.95;4.25;;;6.50;99.90;;;;;;5062859;28;20507;-76
2022/01/31 09:44:23;;;;;;;29.10;3.60;;;6.50;99.90;;;;;;5081190;28;20024;-76
2022/01/31 09:49:22;;;;;;;30.58;3.80;;;6.50;99.90;;;;;;5067058;28;20393;-77
2022/01/31 09:51:47;;;;;;;35.78;5.18;;;6.40;99.90;;;;;;5058528;28;20476;-76
2022/01/31 09:54:14;;;;;;;35.47;4.60;;;6.50;99.90;;;;;;5054909;28;20047;-77
2022/01/31 09:56:42;;;;;;;29.13;4.30;;;6.50;99.90;;;;;;5064266;28;20120;-77
2022/01/31 09:59:10;;;;;;;26.90;3.55;;;6.50;99.90;;;;;;5067427;28;20064;-77
2022/01/31 10:01:39;;;;;;;27.20;3.53;;;6.50;99.90;;;;;;5062661;28;20025;-76
2022/01/31 10:04:14;;;;;;;25.42;3.58;;;6.50;99.90;;;;;;5055395;28;20021;-77
2022/01/31 10:06:43;;;;;;;29.80;4.05;;;6.50;99.90;;;;;;5056020;28;20021;-77
2022/01/31 10:09:09;;;;;;;22.25;4.10;;;6.40;99.90;;;;;;5060274;28;20037;-77
2022/01/31 10:11:41;;;;;;;32.47;4.97;;;6.40;99.90;;;;;;5054372;28;20039;-77
2022/01/31 10:16:59;;;;;;;34.00;4.28;;;6.40;99.90;;;;;;5030268;28;20044;-77
2022/01/31 10:19:24;;;;;;;38.88;4.45;;;6.40;99.90;;;;;;5057914;28;20537;-77
2022/01/31 10:22:01;;;;;;;40.75;4.97;;;6.40;99.90;;;;;;5069162;28;20028;-77
2022/01/31 10:24:28;;;;;;;42.10;5.03;;;6.40;99.90;;;;;;5070349;28;20048;-77
2022/01/31 10:27:05;;;;;;;36.38;5.55;;;6.40;99.90;;;;;;5066749;28;20044;-76
2022/01/31 10:29:30;;;;;;;38.50;4.88;;;6.50;99.90;;;;;;5064099;28;20025;-76
2022/01/31 10:32:26;;;;;;;43.35;5.50;;;6.50;99.90;;;;;;5068347;28;20082;-76
2022/01/31 10:34:55;;;;;;;40.10;5.30;;;6.50;99.90;;;;;;5071058;28;20033;-76
2022/01/31 10:37:23;;;;;;;52.50;5.25;;;6.60;99.90;;;;;;5074711;28;20036;-76
2022/01/31 10:53:48;;;;;;;37.42;5.40;;;6.60;99.90;;;;;;5064257;28;20040;-76
2022/01/31 10:56:16;;;;;;;44.58;5.82;;;6.60;99.90;;;;;;5067120;28;20054;-76
2022/01/31 10:58:59;;;;;;;44.58;5.13;;;6.60;99.90;;;;;;5064860;28;20021;-77
2022/01/31 11:01:26;;;;;;;36.92;5.20;;;6.60;99.90;;;;;;5063331;28;20021;-77
2022/01/31 11:03:52;;;;;;;37.53;4.68;;;6.70;99.90;;;;;;5065386;28;20391;-77
2022/01/31 11:06:20;;;;;;;35.83;4.53;;;6.70;99.90;;;;;;5061904;28;20061;-77
2022/01/31 11:08:47;;;;;;;33.28;4.97;;;6.60;99.90;;;;;;5058377;28;20476;-77
2022/01/31 11:11:13;;;;;;;33.05;4.25;;;6.70;99.90;;;;;;5061614;28;20041;-77
2022/01/31 11:13:39;;;;;;;33.55;4.30;;;6.80;99.90;;;;;;5066001;28;20083;-77
2022/01/31 11:16:06;;;;;;;31.63;4.65;;;6.80;99.90;;;;;;5068459;28;20028;-76
2022/01/31 11:18:34;;;;;;;36.50;4.50;;;6.80;99.90;;;;;;5073188;28;20039;-76
2022/01/31 11:21:05;;;;;;;27.27;4.35;;;6.90;99.90;;;;;;5059687;28;20025;-75
2022/01/31 11:23:40;;;;;;;27.38;3.55;;;6.90;99.90;;;;;;5070345;28;20028;-77
2022/01/31 11:26:08;;;;;;;30.10;3.63;;;6.90;99.90;;;;;;5066339;28;20021;-76
2022/01/31 11:28:36;;;;;;;25.20;3.38;;;6.80;99.90;;;;;;5068438;28;20062;-77
2022/01/31 11:31:03;;;;;;;26.67;3.53;;;6.70;99.90;;;;;;5067037;28;20025;-77
2022/01/31 11:33:34;;;;;;;23.20;3.15;;;6.70;99.90;;;;;;5062068;28;20051;-78
2022/01/31 11:36:00;;;;;;;20.67;3.25;;;6.70;99.90;;;;;;5079104;28;20048;-90
2022/01/31 11:38:25;;;;;;;23.98;3.20;;;6.70;99.90;;;;;;5085820;28;20051;-79
2022/01/31 11:40:51;;;;;;;22.90;3.38;;;6.70;99.90;;;;;;5078201;28;20024;-79
2022/01/31 11:43:19;;;;;;;25.33;3.70;;;6.70;99.90;;;;;;5070532;28;20423;-78
2022/01/31 11:45:50;;;;;;;21.25;3.38;;;6.70;99.90;;;;;;5072288;28;20400;-78
2022/01/31 11:48:27;;;;;;;25.05;4.18;;;6.60;99.90;;;;;;5060561;28;20029;-77
2022/01/31 11:50:57;;;;;;;21.00;3.03;;;6.60;99.90;;;;;;5072283;28;20048;-82
2022/01/31 11:53:27;;;;;;;25.80;3.50;;;6.70;99.90;;;;;;5065523;28;20449;-80
2022/01/31 11:55:53;;;;;;;23.63;2.72;;;6.70;99.90;;;;;;5056243;28;20040;-80
2022/01/31 11:58:19;;;;;;;25.40;3.47;;;6.70;99.90;;;;;;5056877;28;20099;-82
2022/01/31 12:00:47;;;;;;;25.38;3.88;;;6.70;99.90;;;;;;5067887;28;20032;-78
2022/01/31 12:03:17;;;;;;;24.80;3.90;;;6.70;99.90;;;;;;5065261;28;20037;-78
2022/01/31 12:05:44;;;;;;;24.15;2.78;;;6.70;99.90;;;;;;5068442;28;20031;-78
2022/01/31 12:08:22;;;;;;;21.52;2.95;;;6.70;99.90;;;;;;5064225;28;20411;-77
2022/01/31 12:11:15;;;;;;;25.17;3.65;;;6.80;99.90;;;;;;5069982;28;20025;-78
2022/01/31 12:13:45;;;;;;;32.50;4.33;;;6.70;99.90;;;;;;5056447;28;20029;-77
2022/01/31 12:17:08;;;;;;;33.90;4.63;;;6.70;99.90;;;;;;5064105;28;20279;-78
2022/01/31 12:22:02;;;;;;;29.52;4.88;;;6.80;99.90;;;;;;5060141;28;20028;-76
2022/01/31 12:24:40;;;;;;;33.78;4.60;;;6.90;99.90;;;;;;5056708;28;20025;-76
2022/01/31 12:27:27;;;;;;;37.60;4.88;;;6.90;99.90;;;;;;5059788;28;20108;-77
2022/01/31 12:29:57;;;;;;;29.77;4.10;;;6.90;99.90;;;;;;5061535;28;20033;-74
2022/01/31 12:32:33;;;;;;;34.85;4.75;;;7.00;99.90;;;;;;5068890;28;20237;-75
2022/01/31 12:35:00;;;;;;;29.67;4.40;;;6.90;99.90;;;;;;5076583;28;20024;-76
2022/01/31 12:37:36;;;;;;;36.65;5.20;;;6.90;99.90;;;;;;5078054;28;20043;-76
2022/01/31 12:40:29;;;;;;;32.88;4.13;;;6.90;99.90;;;;;;5078147;28;20059;-77
2022/01/31 12:45:39;;;;;;;33.30;4.40;;;6.90;99.90;;;;;;5058386;28;20024;-77
2022/01/31 12:48:24;;;;;;;28.00;3.10;;;6.90;99.90;;;;;;5062315;28;20024;-77
2022/01/31 12:50:53;;;;;;;31.92;3.17;;;6.90;99.90;;;;;;5067805;28;20052;-78
2022/01/31 12:53:43;;;;;;;27.90;3.42;;;6.90;99.90;;;;;;5067802;28;20033;-77
2022/01/31 12:56:20;;;;;;;21.30;3.38;;;6.90;99.90;;;;;;5067104;28;20048;-76
2022/01/31 12:58:55;;;;;;;31.52;5.15;;;6.90;99.90;;;;;;5060779;28;20033;-76
2022/01/31 13:01:30;;;;;;;32.80;4.30;;;6.90;99.90;;;;;;5074283;28;20036;-76
2022/01/31 13:04:00;;;;;;;36.13;4.35;;;6.90;99.90;;;;;;5067278;28;20380;-76
2022/01/31 13:06:55;;;;;;;28.30;3.45;;;7.00;99.90;;;;;;5060094;28;20032;-77
2022/01/31 13:09:23;;;;;;;31.15;4.28;;;6.90;99.90;;;;;;5042620;28;20115;-77
2022/01/31 13:11:59;;;;;;;37.53;5.32;;;6.90;99.90;;;;;;5058151;28;20122;-77
2022/01/31 13:14:30;;;;;;;34.35;4.28;;;6.90;99.90;;;;;;5064857;28;20472;-77
2022/01/31 13:17:06;;;;;;;31.13;4.40;;;6.90;99.90;;;;;;5063462;28;20033;-78
2022/01/31 13:19:37;;;;;;;30.92;4.28;;;6.90;99.90;;;;;;5072919;28;20062;-77
2022/01/31 13:22:14;;;;;;;30.92;4.00;;;6.90;99.90;;;;;;5060577;28;20404;-78
2022/01/31 13:24:48;;;;;;;31.45;5.05;;;6.90;99.90;;;;;;5059893;28;20063;-78